Time;durP1;ratioP1;P1;durP2;ratioP2;P2;SDS_P1;SDS_P2;PMS_P1;PMS_P2;Temp;Humidity;BMP_temperature;BMP_pressure;BME280_temperature;BME280_humidity;BME280_pressure;Samples;Min_cycle;Max_cycle;Signal;HPM_P1;HPM_P2
2023/07/06 00:01:24;;;;;;;5.13;4.65;;;15.60;99.90;;;;;;5032510;28;20100;-79
2023/07/06 00:03:51;;;;;;;6.00;4.25;;;15.50;99.90;;;;;;5031250;28;20094;-79
2023/07/06 00:06:17;;;;;;;9.40;5.35;;;15.40;99.90;;;;;;5032589;28;20034;-79
2023/07/06 00:08:43;;;;;;;9.32;5.13;;;15.30;99.90;;;;;;5031321;28;20391;-79
2023/07/06 00:11:09;;;;;;;14.38;6.93;;;15.30;99.90;;;;;;5032230;28;20036;-79
2023/07/06 00:13:36;;;;;;;15.98;6.82;;;15.30;99.90;;;;;;5031236;28;20094;-79
2023/07/06 00:16:02;;;;;;;7.38;6.15;;;15.30;99.90;;;;;;5031155;28;20042;-79
2023/07/06 00:18:28;;;;;;;10.05;6.07;;;15.30;99.90;;;;;;5031211;28;20112;-79
2023/07/06 00:20:54;;;;;;;7.28;5.60;;;15.30;99.90;;;;;;5032326;28;20022;-79
2023/07/06 00:23:21;;;;;;;7.75;6.07;;;15.30;99.90;;;;;;5032273;28;20078;-79
2023/07/06 00:25:47;;;;;;;6.18;5.57;;;15.30;99.90;;;;;;5030845;28;20512;-78
2023/07/06 00:28:14;;;;;;;6.07;5.47;;;15.30;99.90;;;;;;5032226;28;20034;-78
2023/07/06 00:33:19;;;;;;;6.75;6.15;;;15.20;99.90;;;;;;5052508;28;20061;-78
2023/07/06 00:35:46;;;;;;;5.30;4.80;;;15.30;99.90;;;;;;5049331;28;20027;-78
2023/07/06 00:38:15;;;;;;;5.05;4.15;;;15.30;99.90;;;;;;5050543;28;20013;-79
2023/07/06 00:40:44;;;;;;;6.63;5.22;;;15.30;99.90;;;;;;5051570;28;20089;-79
2023/07/06 00:43:23;;;;;;;5.47;4.97;;;15.20;99.90;;;;;;5050502;28;20573;-79
2023/07/06 00:45:53;;;;;;;5.97;5.38;;;15.30;99.90;;;;;;5051764;28;20067;-78
2023/07/06 00:48:35;;;;;;;7.18;5.50;;;15.30;99.90;;;;;;5051954;28;20048;-78
2023/07/06 00:51:07;;;;;;;8.02;6.45;;;15.30;99.90;;;;;;5051957;28;20040;-78
2023/07/06 00:53:37;;;;;;;8.10;5.57;;;15.20;99.90;;;;;;5042267;28;20067;-78
2023/07/06 00:56:08;;;;;;;6.07;4.85;;;15.20;99.90;;;;;;5031940;28;20025;-78
2023/07/06 00:58:38;;;;;;;7.18;5.80;;;15.20;99.90;;;;;;5031568;28;20034;-79
2023/07/06 01:01:07;;;;;;;7.05;5.30;;;15.20;99.90;;;;;;5031937;28;20025;-78
2023/07/06 01:03:43;;;;;;;10.40;5.90;;;15.20;99.90;;;;;;5030357;28;20029;-78
2023/07/06 01:06:14;;;;;;;7.15;5.25;;;15.20;99.90;;;;;;5031532;28;20028;-79
2023/07/06 01:08:39;;;;;;;5.50;5.00;;;15.20;99.90;;;;;;5030298;28;20021;-79
2023/07/06 01:11:08;;;;;;;5.78;5.25;;;15.20;99.90;;;;;;5036441;28;20398;-79
2023/07/06 01:13:33;;;;;;;11.60;6.13;;;15.20;99.90;;;;;;5049971;28;20025;-79
2023/07/06 01:16:23;;;;;;;13.57;5.72;;;15.20;99.90;;;;;;5051238;28;20028;-78
2023/07/06 01:19:03;;;;;;;7.38;5.30;;;15.20;99.90;;;;;;5051550;28;20505;-79
2023/07/06 01:22:04;;;;;;;8.80;5.70;;;15.20;99.90;;;;;;5050090;28;20104;-78
2023/07/06 01:25:07;;;;;;;6.13;5.53;;;15.20;99.90;;;;;;5036695;28;20090;-78
2023/07/06 01:27:49;;;;;;;6.90;6.20;;;15.20;99.90;;;;;;5049827;28;20139;-78
2023/07/06 01:30:27;;;;;;;6.45;5.60;;;15.20;99.90;;;;;;5051226;28;20545;-79
2023/07/06 01:32:59;;;;;;;8.38;6.05;;;15.20;99.90;;;;;;5049849;28;20029;-78
2023/07/06 01:35:44;;;;;;;8.77;5.75;;;15.20;99.90;;;;;;5051037;28;20022;-79
2023/07/06 01:38:11;;;;;;;6.13;5.13;;;15.20;99.90;;;;;;5051038;28;20116;-78
2023/07/06 01:40:37;;;;;;;7.88;6.20;;;15.10;99.90;;;;;;5032938;28;20118;-79
2023/07/06 01:43:02;;;;;;;7.70;6.47;;;15.10;99.90;;;;;;5029809;28;20482;-78
2023/07/06 01:45:30;;;;;;;8.77;7.18;;;15.20;99.90;;;;;;5029780;28;20074;-79
2023/07/06 01:47:59;;;;;;;9.77;7.40;;;15.20;99.90;;;;;;5030607;28;20421;-79
2023/07/06 01:50:50;;;;;;;15.82;6.93;;;15.10;99.90;;;;;;5029533;28;20136;-78
2023/07/06 01:53:38;;;;;;;9.15;7.38;;;15.20;99.90;;;;;;5029555;28;20074;-78
2023/07/06 01:56:04;;;;;;;9.32;6.93;;;15.20;99.90;;;;;;5030894;28;20082;-79
2023/07/06 01:58:33;;;;;;;8.07;6.43;;;15.20;99.90;;;;;;5030806;28;20021;-78
2023/07/06 02:01:13;;;;;;;10.07;6.90;;;15.10;99.90;;;;;;5029552;28;20033;-79
2023/07/06 02:03:39;;;;;;;10.93;6.30;;;15.10;99.90;;;;;;5030850;28;20057;-79
2023/07/06 02:06:07;;;;;;;7.20;5.50;;;15.00;99.90;;;;;;5029481;28;20026;-79
2023/07/06 02:08:33;;;;;;;5.70;5.10;;;15.00;99.90;;;;;;5030684;28;20026;-78
2023/07/06 02:11:01;;;;;;;8.13;4.70;;;14.90;99.90;;;;;;5030431;28;20120;-78
2023/07/06 02:13:27;;;;;;;4.60;4.13;;;14.80;99.90;;;;;;5030709;28;20017;-77
2023/07/06 02:15:52;;;;;;;11.45;4.82;;;14.70;99.90;;;;;;5030500;28;20093;-77
2023/07/06 02:18:19;;;;;;;4.78;3.60;;;14.70;99.90;;;;;;5030670;28;20052;-78
2023/07/06 02:20:47;;;;;;;4.95;3.42;;;14.70;99.90;;;;;;5029438;28;20021;-78
2023/07/06 02:23:13;;;;;;;23.13;5.13;;;14.60;99.90;;;;;;5029148;28;20014;-77
2023/07/06 02:25:39;;;;;;;7.72;5.18;;;14.50;99.90;;;;;;5030340;28;20032;-78
2023/07/06 02:28:08;;;;;;;8.63;5.60;;;14.40;99.90;;;;;;5030459;28;20096;-78
2023/07/06 02:30:34;;;;;;;7.68;6.07;;;14.40;99.90;;;;;;5030325;28;20052;-77
2023/07/06 02:33:00;;;;;;;8.35;6.10;;;14.40;99.90;;;;;;5030460;28;20174;-78
2023/07/06 02:35:26;;;;;;;16.90;7.43;;;14.40;99.90;;;;;;5030221;28;20033;-78
2023/07/06 02:37:52;;;;;;;10.65;8.35;;;14.40;99.90;;;;;;5030346;28;20053;-79
2023/07/06 02:40:18;;;;;;;10.90;7.45;;;14.40;99.90;;;;;;5030209;28;20441;-79
2023/07/06 02:42:44;;;;;;;11.80;9.10;;;14.40;99.90;;;;;;5029170;28;20049;-79
2023/07/06 02:45:10;;;;;;;13.25;8.00;;;14.40;99.90;;;;;;5028976;28;20544;-78
2023/07/06 02:47:36;;;;;;;13.18;8.57;;;14.40;99.90;;;;;;5028949;28;20395;-79
2023/07/06 02:50:04;;;;;;;13.77;8.70;;;14.40;99.90;;;;;;5028778;28;20227;-79
2023/07/06 02:52:30;;;;;;;13.77;8.93;;;14.40;99.90;;;;;;5028805;28;20053;-79
2023/07/06 02:54:55;;;;;;;12.77;8.77;;;14.40;99.90;;;;;;5030081;28;20057;-79
2023/07/06 02:57:21;;;;;;;14.88;8.38;;;14.40;99.90;;;;;;5028758;28;20075;-79
2023/07/06 02:59:47;;;;;;;13.85;8.65;;;14.40;99.90;;;;;;5032424;28;20030;-79
2023/07/06 03:02:12;;;;;;;67.45;10.38;;;14.40;99.90;;;;;;5032355;28;20026;-79
2023/07/06 03:04:38;;;;;;;15.43;7.32;;;14.30;99.90;;;;;;5032236;28;20021;-79
2023/07/06 03:07:05;;;;;;;8.80;6.80;;;14.30;99.90;;;;;;5032226;28;20116;-78
2023/07/06 03:09:31;;;;;;;9.25;5.40;;;14.30;99.90;;;;;;5033345;28;20487;-79
2023/07/06 03:11:56;;;;;;;6.15;5.22;;;14.20;99.90;;;;;;5033173;28;20043;-80
2023/07/06 03:14:24;;;;;;;13.75;6.63;;;14.10;99.90;;;;;;5032096;28;20018;-80
2023/07/06 03:16:53;;;;;;;13.43;7.55;;;14.10;99.90;;;;;;5032011;28;20126;-80
2023/07/06 03:19:19;;;;;;;9.98;7.13;;;14.10;99.90;;;;;;5032030;28;20475;-80
2023/07/06 03:21:45;;;;;;;11.80;7.90;;;14.10;99.90;;;;;;5031909;28;20040;-80
2023/07/06 03:24:11;;;;;;;15.27;9.85;;;14.20;99.90;;;;;;5032003;28;20116;-80
2023/07/06 03:26:39;;;;;;;19.00;11.52;;;14.20;99.90;;;;;;5033182;28;20068;-79
2023/07/06 03:29:05;;;;;;;20.35;10.75;;;14.20;99.90;;;;;;5033165;28;20049;-79
2023/07/06 03:31:32;;;;;;;13.30;9.02;;;14.30;99.90;;;;;;5031680;28;20030;-79
2023/07/06 03:33:59;;;;;;;16.17;7.85;;;14.40;99.90;;;;;;5033051;28;20111;-80
2023/07/06 03:36:25;;;;;;;14.15;8.05;;;14.60;99.90;;;;;;5031579;28;20028;-80
2023/07/06 03:38:51;;;;;;;11.55;6.78;;;14.80;99.90;;;;;;5031846;28;20022;-80
2023/07/06 03:41:17;;;;;;;8.35;6.35;;;14.90;99.90;;;;;;5031400;28;20046;-80
2023/07/06 03:43:43;;;;;;;15.20;7.60;;;15.10;99.90;;;;;;5031616;28;20025;-80
2023/07/06 03:46:09;;;;;;;12.52;7.63;;;15.20;99.90;;;;;;5032888;28;20029;-80
2023/07/06 03:48:36;;;;;;;8.55;6.32;;;15.20;99.90;;;;;;5032942;28;20022;-81
2023/07/06 03:51:05;;;;;;;7.57;5.80;;;15.40;99.90;;;;;;5032703;28;20037;-80
2023/07/06 03:53:31;;;;;;;6.57;5.47;;;15.50;99.90;;;;;;5031572;28;20029;-80
2023/07/06 03:55:58;;;;;;;8.77;5.20;;;15.60;99.90;;;;;;5031535;28;20026;-80
2023/07/06 03:58:24;;;;;;;8.05;5.05;;;15.70;99.90;;;;;;5032611;28;20028;-80
2023/07/06 04:00:50;;;;;;;8.20;5.00;;;15.90;99.90;;;;;;5032466;28;20044;-80
2023/07/06 04:03:15;;;;;;;12.60;5.15;;;15.90;99.90;;;;;;5032607;28;20025;-80
2023/07/06 04:05:47;;;;;;;7.22;4.72;;;15.90;99.90;;;;;;5032397;28;20428;-80
2023/07/06 04:08:17;;;;;;;8.75;4.75;;;16.10;99.90;;;;;;5032728;28;20534;-80
2023/07/06 04:10:43;;;;;;;9.15;4.35;;;16.10;99.90;;;;;;5032146;28;20037;-80
2023/07/06 04:13:10;;;;;;;5.28;3.70;;;16.20;99.90;;;;;;5031200;28;20020;-80
2023/07/06 04:15:39;;;;;;;7.30;4.32;;;16.30;99.90;;;;;;5030345;28;20082;-80
2023/07/06 04:18:05;;;;;;;8.05;3.90;;;16.30;99.90;;;;;;5033411;28;20053;-80
2023/07/06 04:20:32;;;;;;;6.15;3.47;;;16.30;99.90;;;;;;5032267;28;20060;-81
2023/07/06 04:22:58;;;;;;;5.47;3.55;;;16.50;99.90;;;;;;5047477;28;20128;-80
2023/07/06 04:25:29;;;;;;;6.05;3.33;;;16.60;99.90;;;;;;5050336;28;20416;-80
2023/07/06 04:27:56;;;;;;;9.57;3.75;;;16.60;99.90;;;;;;5041656;28;20025;-80
2023/07/06 04:30:22;;;;;;;10.25;3.20;;;16.70;99.90;;;;;;5039740;28;20029;-80
2023/07/06 04:32:49;;;;;;;4.95;3.33;;;16.80;99.90;;;;;;5036032;28;20033;-81
2023/07/06 04:35:17;;;;;;;4.70;3.15;;;16.70;99.90;;;;;;5033676;28;20073;-80
2023/07/06 04:37:46;;;;;;;4.70;2.83;;;16.80;99.90;;;;;;5051730;28;20469;-80
2023/07/06 04:40:17;;;;;;;7.10;3.45;;;16.80;99.90;;;;;;5050323;28;20057;-81
2023/07/06 04:42:44;;;;;;;4.63;3.70;;;16.70;99.90;;;;;;5050767;28;20060;-80
2023/07/06 04:45:10;;;;;;;7.40;3.75;;;16.70;99.90;;;;;;5050440;28;20029;-80
2023/07/06 04:47:39;;;;;;;4.95;3.28;;;16.70;99.90;;;;;;5050479;28;20485;-80
2023/07/06 04:50:06;;;;;;;5.45;3.38;;;16.70;99.90;;;;;;5051510;28;20037;-80
2023/07/06 04:52:33;;;;;;;8.45;3.42;;;16.90;99.90;;;;;;5050348;28;20032;-80
2023/07/06 04:54:59;;;;;;;7.00;3.50;;;17.10;99.90;;;;;;5048372;28;20360;-80
2023/07/06 04:57:25;;;;;;;5.10;3.85;;;17.10;99.90;;;;;;5039693;28;20020;-79
2023/07/06 04:59:51;;;;;;;5.80;3.53;;;17.40;99.90;;;;;;5040676;28;20475;-80
2023/07/06 05:02:16;;;;;;;4.38;3.08;;;17.60;99.90;;;;;;5048788;28;20029;-80
2023/07/06 05:04:42;;;;;;;5.65;2.90;;;17.70;99.90;;;;;;5040284;28;20044;-80
2023/07/06 05:07:11;;;;;;;6.18;3.25;;;17.90;99.90;;;;;;5037175;28;20045;-79
2023/07/06 05:09:38;;;;;;;4.47;2.97;;;18.10;99.90;;;;;;5038719;28;20025;-78
2023/07/06 05:12:04;;;;;;;6.30;3.35;;;17.80;99.90;;;;;;5041260;28;20116;-78
2023/07/06 05:14:29;;;;;;;5.03;2.80;;;18.00;99.90;;;;;;5042987;28;20080;-80
2023/07/06 05:16:55;;;;;;;3.97;2.70;;;18.00;99.90;;;;;;5051303;28;20021;-81
2023/07/06 05:19:23;;;;;;;6.88;2.97;;;18.00;99.90;;;;;;5049591;28;20435;-81
2023/07/06 05:21:49;;;;;;;5.47;3.00;;;18.10;99.90;;;;;;5049292;28;20496;-82
2023/07/06 05:24:14;;;;;;;6.05;3.28;;;18.20;99.90;;;;;;5049454;28;20021;-81
2023/07/06 05:26:40;;;;;;;4.95;3.00;;;18.10;96.70;;;;;;5040400;28;20029;-81
2023/07/06 05:29:05;;;;;;;6.72;3.20;;;18.10;99.90;;;;;;5040066;28;20098;-80
2023/07/06 05:31:31;;;;;;;3.40;3.08;;;17.90;99.70;;;;;;5044300;28;20044;-81
2023/07/06 05:33:56;;;;;;;5.22;3.03;;;17.80;97.00;;;;;;5050998;28;20026;-80
2023/07/06 05:36:22;;;;;;;5.70;2.60;;;17.90;99.60;;;;;;5050351;28;20125;-78
2023/07/06 05:38:47;;;;;;;6.03;3.05;;;17.90;97.30;;;;;;5048116;28;20024;-78
2023/07/06 05:41:13;;;;;;;6.40;2.72;;;17.90;95.00;;;;;;5048460;28;20140;-79
2023/07/06 05:43:39;;;;;;;3.47;2.80;;;18.00;93.30;;;;;;5050438;28;20486;-78
2023/07/06 05:46:04;;;;;;;6.88;2.92;;;18.00;92.60;;;;;;5048988;28;20355;-79
2023/07/06 05:48:30;;;;;;;3.70;2.55;;;18.00;93.90;;;;;;5048598;28;20032;-81
2023/07/06 05:50:56;;;;;;;7.45;2.83;;;18.00;90.40;;;;;;5047150;28;20398;-78
2023/07/06 05:53:22;;;;;;;8.18;3.00;;;18.20;91.30;;;;;;5046391;28;20024;-79
2023/07/06 05:55:48;;;;;;;4.35;2.50;;;18.20;90.00;;;;;;5046787;28;20031;-79
2023/07/06 05:58:16;;;;;;;6.28;3.00;;;18.30;90.20;;;;;;5047135;28;20077;-78
2023/07/06 06:00:42;;;;;;;4.40;3.03;;;18.20;89.80;;;;;;5046233;28;20021;-77
2023/07/06 06:03:07;;;;;;;4.07;2.85;;;18.10;89.70;;;;;;5036081;28;20036;-77
2023/07/06 06:05:34;;;;;;;3.28;2.95;;;18.20;90.50;;;;;;5027942;28;20029;-77
2023/07/06 06:08:02;;;;;;;4.80;2.50;;;18.20;91.10;;;;;;5026990;28;20470;-78
2023/07/06 06:10:28;;;;;;;5.57;2.58;;;18.20;92.40;;;;;;5028730;28;20033;-78
2023/07/06 06:12:54;;;;;;;6.85;3.03;;;18.30;91.60;;;;;;5029800;28;20058;-79
2023/07/06 06:15:20;;;;;;;5.95;3.58;;;18.40;92.10;;;;;;5028516;28;20025;-79
2023/07/06 06:17:48;;;;;;;5.82;2.92;;;18.40;90.30;;;;;;5030874;28;20021;-78
2023/07/06 06:20:14;;;;;;;4.53;2.33;;;18.40;90.60;;;;;;5030210;28;20028;-78
2023/07/06 06:22:40;;;;;;;5.30;2.60;;;18.50;87.90;;;;;;5029052;28;20382;-80
2023/07/06 06:25:06;;;;;;;5.10;2.75;;;18.80;92.90;;;;;;5029642;28;20121;-79
2023/07/06 06:27:32;;;;;;;7.10;2.58;;;18.80;90.20;;;;;;5028584;28;20472;-80
2023/07/06 06:29:58;;;;;;;4.93;3.03;;;19.10;89.80;;;;;;5028684;28;20025;-79
2023/07/06 06:32:25;;;;;;;5.82;3.05;;;19.10;89.30;;;;;;5029722;28;20026;-79
2023/07/06 06:34:51;;;;;;;6.15;3.22;;;19.20;89.50;;;;;;5032201;28;20025;-80
2023/07/06 06:37:17;;;;;;;3.95;2.78;;;19.30;91.00;;;;;;5029647;28;20013;-79
2023/07/06 06:39:43;;;;;;;4.88;2.90;;;19.20;79.80;;;;;;5014047;28;20490;-79
2023/07/06 06:42:09;;;;;;;4.90;3.33;;;19.40;84.70;;;;;;5030795;28;20053;-79
2023/07/06 06:44:35;;;;;;;4.13;2.83;;;19.40;86.20;;;;;;5031829;28;20030;-79
2023/07/06 06:47:04;;;;;;;3.38;2.33;;;19.50;87.10;;;;;;5032314;28;20029;-80
2023/07/06 06:49:30;;;;;;;2.97;2.60;;;19.40;85.80;;;;;;5051573;28;20025;-79
2023/07/06 06:51:56;;;;;;;7.15;3.55;;;19.40;85.10;;;;;;5050276;28;20025;-79
2023/07/06 06:54:22;;;;;;;8.68;2.90;;;19.40;88.00;;;;;;5051754;28;20100;-79
2023/07/06 06:56:49;;;;;;;4.95;3.30;;;19.30;87.70;;;;;;5051646;28;20053;-80
2023/07/06 06:59:15;;;;;;;3.20;2.90;;;19.40;89.90;;;;;;5051586;28;20111;-79
2023/07/06 07:01:40;;;;;;;3.97;2.95;;;19.30;87.70;;;;;;5053480;28;20056;-78
2023/07/06 07:04:09;;;;;;;7.40;4.10;;;19.30;87.50;;;;;;5048336;28;20055;-78
2023/07/06 07:06:36;;;;;;;9.00;3.40;;;19.30;93.70;;;;;;5052274;28;20031;-79
2023/07/06 07:09:02;;;;;;;4.97;3.60;;;19.30;97.80;;;;;;5051745;28;20044;-79
2023/07/06 07:11:28;;;;;;;5.20;3.88;;;19.40;99.90;;;;;;5051421;28;20060;-79
2023/07/06 07:13:54;;;;;;;6.45;3.80;;;19.40;97.50;;;;;;5052799;28;20013;-79
2023/07/06 07:16:20;;;;;;;5.88;3.72;;;19.40;99.20;;;;;;5052853;28;20025;-80
2023/07/06 07:18:46;;;;;;;8.23;3.67;;;19.50;99.90;;;;;;5052825;28;20066;-79
2023/07/06 07:21:14;;;;;;;5.97;3.97;;;19.50;99.90;;;;;;5051458;28;20493;-80
2023/07/06 07:23:42;;;;;;;6.00;3.70;;;19.60;99.90;;;;;;5051309;28;20074;-80
2023/07/06 07:26:16;;;;;;;7.63;4.22;;;19.50;99.90;;;;;;5051432;28;20013;-80
2023/07/06 07:28:42;;;;;;;6.63;3.97;;;19.50;99.90;;;;;;5052635;28;20057;-80
2023/07/06 07:31:11;;;;;;;9.70;4.47;;;19.60;99.90;;;;;;5052521;28;20493;-80
2023/07/06 07:33:38;;;;;;;6.85;3.28;;;19.40;99.90;;;;;;5052417;28;20029;-80
2023/07/06 07:36:05;;;;;;;5.63;3.90;;;19.50;99.90;;;;;;5051179;28;20025;-80
2023/07/06 07:38:31;;;;;;;4.68;3.40;;;19.40;99.90;;;;;;5052546;28;20032;-80
2023/07/06 07:40:59;;;;;;;7.28;3.53;;;19.40;99.90;;;;;;5050980;28;20045;-80
2023/07/06 07:43:27;;;;;;;6.00;3.42;;;19.40;99.90;;;;;;5050894;28;20401;-78
2023/07/06 07:45:57;;;;;;;7.90;3.92;;;19.40;99.90;;;;;;5050371;28;20029;-77
2023/07/06 07:48:25;;;;;;;4.10;3.63;;;19.40;99.10;;;;;;5052343;28;20033;-81
2023/07/06 07:50:53;;;;;;;4.45;2.97;;;19.30;92.00;;;;;;5052242;28;20037;-80
2023/07/06 07:53:19;;;;;;;4.07;3.22;;;19.20;83.00;;;;;;5050924;28;20497;-80
2023/07/06 07:55:45;;;;;;;5.18;3.28;;;19.10;83.90;;;;;;5052085;28;20029;-77
2023/07/06 07:58:11;;;;;;;3.90;3.08;;;19.20;82.50;;;;;;5051030;28;20021;-77
2023/07/06 08:00:36;;;;;;;6.07;3.80;;;19.20;89.10;;;;;;5050891;28;20109;-78
2023/07/06 08:03:06;;;;;;;4.05;3.50;;;19.20;97.90;;;;;;5050861;28;20486;-78
2023/07/06 08:05:31;;;;;;;6.97;3.85;;;19.40;94.50;;;;;;5050677;28;20021;-79
2023/07/06 08:07:57;;;;;;;5.18;3.78;;;19.50;95.30;;;;;;5037508;28;20028;-78
2023/07/06 08:10:23;;;;;;;7.75;4.40;;;19.50;97.20;;;;;;5030844;28;20566;-78
2023/07/06 08:12:49;;;;;;;7.82;4.00;;;19.50;99.50;;;;;;5030705;28;20021;-78
2023/07/06 08:15:15;;;;;;;10.40;3.85;;;19.60;99.70;;;;;;5030786;28;20105;-78
2023/07/06 08:17:41;;;;;;;5.35;4.13;;;19.70;99.90;;;;;;5030646;28;20057;-78
2023/07/06 08:20:10;;;;;;;5.05;3.30;;;19.70;93.30;;;;;;5032001;28;20025;-78
2023/07/06 08:22:36;;;;;;;11.45;4.28;;;19.80;95.90;;;;;;5031694;28;20471;-78
2023/07/06 08:25:08;;;;;;;5.28;3.83;;;19.90;92.10;;;;;;5031030;28;20021;-78
2023/07/06 08:27:35;;;;;;;8.77;3.38;;;20.00;94.00;;;;;;5030989;28;20021;-78
2023/07/06 08:30:01;;;;;;;4.65;3.25;;;20.00;86.00;;;;;;5031768;28;20105;-78
2023/07/06 08:32:27;;;;;;;5.72;4.30;;;20.20;80.70;;;;;;5030474;28;20079;-78
2023/07/06 08:34:53;;;;;;;5.20;3.72;;;20.30;83.90;;;;;;5031636;28;20021;-78
2023/07/06 08:37:20;;;;;;;5.55;3.45;;;20.20;85.40;;;;;;5030461;28;20025;-78
2023/07/06 08:39:46;;;;;;;4.55;3.20;;;20.30;81.40;;;;;;5029429;27;20068;-78
2023/07/06 08:42:15;;;;;;;5.95;3.50;;;20.40;76.70;;;;;;5030676;28;20075;-78
2023/07/06 08:44:50;;;;;;;8.82;4.05;;;20.60;83.30;;;;;;5031192;28;20026;-78
2023/07/06 08:47:17;;;;;;;7.38;3.70;;;20.80;86.20;;;;;;5031597;28;20100;-78
2023/07/06 08:49:46;;;;;;;5.15;3.70;;;20.90;83.70;;;;;;5030234;28;20029;-78
2023/07/06 08:52:14;;;;;;;5.55;4.22;;;20.90;81.90;;;;;;5030120;28;20479;-78
2023/07/06 08:54:43;;;;;;;6.32;3.08;;;21.00;79.60;;;;;;5037302;28;20024;-79
2023/07/06 08:57:20;;;;;;;4.13;2.72;;;20.90;68.10;;;;;;5045897;28;20394;-79
2023/07/06 08:59:48;;;;;;;5.30;2.55;;;21.10;65.40;;;;;;5050043;28;20025;-79
2023/07/06 09:02:23;;;;;;;6.50;2.28;;;21.10;64.90;;;;;;5050208;28;20411;-79
2023/07/06 09:04:51;;;;;;;2.97;2.40;;;21.10;60.90;;;;;;5049820;28;20112;-79
2023/07/06 09:07:18;;;;;;;3.58;2.13;;;20.80;59.70;;;;;;5051063;28;20146;-78
2023/07/06 09:09:46;;;;;;;5.28;2.35;;;20.90;61.10;;;;;;5051128;28;20025;-78
2023/07/06 09:12:36;;;;;;;5.57;2.10;;;21.00;60.50;;;;;;5049730;28;20086;-78
2023/07/06 09:15:03;;;;;;;4.22;2.40;;;21.00;62.00;;;;;;5049764;28;20036;-79
2023/07/06 09:17:29;;;;;;;4.80;2.78;;;20.90;60.20;;;;;;5049676;28;20036;-78
2023/07/06 09:19:56;;;;;;;3.58;2.28;;;20.90;59.20;;;;;;5051028;28;20021;-78
2023/07/06 09:22:23;;;;;;;2.75;2.15;;;21.00;58.20;;;;;;5050891;28;20022;-78
2023/07/06 09:24:50;;;;;;;10.38;2.85;;;21.10;58.40;;;;;;5050755;28;20443;-78
2023/07/06 09:27:26;;;;;;;4.53;2.38;;;21.30;59.00;;;;;;5049533;28;20025;-78
2023/07/06 09:30:17;;;;;;;2.97;2.10;;;21.20;57.80;;;;;;5049381;28;20089;-78
2023/07/06 09:32:44;;;;;;;3.13;2.33;;;21.20;58.70;;;;;;5040290;28;20025;-79
2023/07/06 09:35:20;;;;;;;6.50;2.58;;;21.10;57.10;;;;;;5037164;28;20513;-79
2023/07/06 09:37:47;;;;;;;2.17;1.98;;;21.20;57.30;;;;;;5040893;28;20026;-78
2023/07/06 09:40:14;;;;;;;4.68;2.38;;;21.30;57.50;;;;;;5027817;27;20120;-79
2023/07/06 09:42:41;;;;;;;5.20;2.45;;;21.50;56.30;;;;;;5039997;27;20034;-78
2023/07/06 09:45:27;;;;;;;4.68;2.08;;;21.60;55.80;;;;;;5041371;27;20040;-78
2023/07/06 09:47:57;;;;;;;2.63;2.20;;;21.40;54.60;;;;;;5040645;28;20029;-78
2023/07/06 09:50:29;;;;;;;3.35;2.25;;;21.30;56.10;;;;;;5040075;28;20133;-78
2023/07/06 09:52:56;;;;;;;2.85;1.95;;;21.40;56.80;;;;;;5030458;28;20056;-78
2023/07/06 09:55:29;;;;;;;3.15;2.20;;;21.50;55.50;;;;;;5029359;28;20033;-78
2023/07/06 09:57:59;;;;;;;3.95;2.08;;;21.40;54.80;;;;;;5029218;28;20029;-78
2023/07/06 10:00:35;;;;;;;6.13;2.38;;;21.50;56.00;;;;;;5030442;28;20029;-78
2023/07/06 10:03:28;;;;;;;5.10;2.35;;;21.50;55.90;;;;;;5029493;28;20026;-79
2023/07/06 10:06:19;;;;;;;3.30;2.00;;;21.30;55.70;;;;;;5030465;28;20087;-78
2023/07/06 10:09:08;;;;;;;5.45;2.25;;;21.40;55.10;;;;;;5028583;28;20030;-79
2023/07/06 10:11:47;;;;;;;3.55;2.17;;;21.50;53.80;;;;;;5030240;28;20045;-78
2023/07/06 10:14:25;;;;;;;2.10;1.92;;;21.60;54.70;;;;;;5029001;28;20025;-78
2023/07/06 10:17:09;;;;;;;2.88;2.67;;;21.60;54.50;;;;;;5028908;28;20022;-78
2023/07/06 10:19:53;;;;;;;5.63;2.75;;;21.60;55.60;;;;;;5028883;28;20029;-78
2023/07/06 10:22:38;;;;;;;3.13;2.40;;;21.70;54.40;;;;;;5030144;28;20026;-78
2023/07/06 10:25:54;;;;;;;5.68;2.30;;;21.90;56.40;;;;;;5029770;28;20085;-78
2023/07/06 10:28:25;;;;;;;4.13;2.17;;;21.90;55.40;;;;;;5038924;28;20105;-78
2023/07/06 10:30:55;;;;;;;4.07;2.10;;;21.90;54.30;;;;;;5028604;28;20037;-78
2023/07/06 10:33:32;;;;;;;4.47;2.30;;;22.10;54.60;;;;;;5030028;28;20025;-79
2023/07/06 10:35:59;;;;;;;3.95;2.55;;;22.30;55.10;;;;;;5029957;28;20021;-79
2023/07/06 10:38:25;;;;;;;2.28;2.03;;;22.40;54.80;;;;;;5047590;28;20060;-78
2023/07/06 10:41:12;;;;;;;2.72;2.50;;;22.10;53.90;;;;;;5048185;28;20498;-78
2023/07/06 10:43:43;;;;;;;2.78;1.95;;;22.00;53.50;;;;;;5049571;28;20071;-78
2023/07/06 10:46:33;;;;;;;3.55;2.42;;;22.10;54.40;;;;;;5048520;28;20021;-78
2023/07/06 10:49:21;;;;;;;3.05;2.03;;;22.10;54.80;;;;;;5049698;28;20025;-78
2023/07/06 10:51:52;;;;;;;4.20;2.53;;;21.50;54.20;;;;;;5049578;28;20485;-78
2023/07/06 10:54:21;;;;;;;3.85;2.42;;;21.30;55.90;;;;;;5048618;28;20013;-78
2023/07/06 10:57:03;;;;;;;3.60;3.08;;;21.10;56.10;;;;;;5049572;28;20029;-78
2023/07/06 10:59:32;;;;;;;7.77;3.07;;;21.00;56.80;;;;;;5048349;28;20021;-78
2023/07/06 11:02:17;;;;;;;4.75;2.40;;;20.70;57.60;;;;;;5048259;28;20268;-78
2023/07/06 11:04:53;;;;;;;3.55;2.95;;;20.60;58.30;;;;;;5048077;28;20082;-79
2023/07/06 11:07:42;;;;;;;4.32;2.47;;;20.60;60.10;;;;;;5048074;28;20094;-79
2023/07/06 11:10:13;;;;;;;5.15;2.78;;;20.50;61.20;;;;;;5049371;28;20504;-79
2023/07/06 11:13:01;;;;;;;32.53;3.42;;;20.60;61.60;;;;;;5048350;28;20040;-79
2023/07/06 11:15:38;;;;;;;5.93;2.60;;;20.50;60.10;;;;;;5048168;28;20055;-79
2023/07/06 11:18:29;;;;;;;6.35;3.05;;;20.50;61.40;;;;;;5048033;28;20431;-78
2023/07/06 11:21:10;;;;;;;8.95;3.83;;;20.40;62.20;;;;;;5051529;28;20104;-79
2023/07/06 11:24:06;;;;;;;5.13;2.85;;;20.20;64.60;;;;;;5052734;28;20032;-79
2023/07/06 11:26:54;;;;;;;3.53;2.80;;;20.10;65.40;;;;;;5052745;28;20462;-78
2023/07/06 11:29:26;;;;;;;10.02;2.83;;;20.10;67.00;;;;;;5043831;28;20116;-78
2023/07/06 11:32:07;;;;;;;4.88;2.83;;;20.10;69.00;;;;;;5051331;28;20036;-78
2023/07/06 11:34:58;;;;;;;8.30;2.70;;;20.00;68.40;;;;;;5051123;28;20416;-78
2023/07/06 11:37:51;;;;;;;6.15;3.25;;;19.90;69.60;;;;;;5051004;28;20105;-78
2023/07/06 11:40:36;;;;;;;6.47;3.25;;;19.80;70.90;;;;;;5051162;28;20017;-78
2023/07/06 11:43:23;;;;;;;4.75;3.67;;;19.80;73.40;;;;;;5052364;28;20092;-78
2023/07/06 11:45:55;;;;;;;5.20;2.97;;;19.80;74.30;;;;;;5052507;28;20074;-78
2023/07/06 11:48:26;;;;;;;4.35;3.38;;;19.90;78.70;;;;;;5051223;28;20113;-77
2023/07/06 11:50:54;;;;;;;9.15;3.45;;;19.90;84.80;;;;;;5050871;28;20041;-79
2023/07/06 11:53:42;;;;;;;5.38;3.17;;;19.90;89.70;;;;;;5052299;28;20028;-79
2023/07/06 11:59:04;;;;;;;4.97;3.00;;;19.70;79.80;;;;;;5052014;28;20040;-79
2023/07/06 12:01:45;;;;;;;4.15;2.70;;;19.80;80.50;;;;;;5051971;28;20036;-78
2023/07/06 12:04:20;;;;;;;5.05;2.85;;;19.80;72.80;;;;;;5051073;28;20025;-78
2023/07/06 12:06:48;;;;;;;5.18;2.90;;;20.00;71.80;;;;;;5052070;28;20017;-79
2023/07/06 12:09:24;;;;;;;5.43;3.15;;;20.10;68.90;;;;;;5051742;28;20112;-79
2023/07/06 12:12:06;;;;;;;4.28;3.10;;;20.40;65.70;;;;;;5050748;28;20033;-79
2023/07/06 12:14:34;;;;;;;3.90;2.70;;;20.60;63.00;;;;;;5050711;28;20021;-80
2023/07/06 12:17:02;;;;;;;5.07;2.90;;;20.80;62.20;;;;;;5052010;28;20046;-79
2023/07/06 12:19:28;;;;;;;4.45;3.03;;;21.10;62.10;;;;;;5050820;28;20021;-80
2023/07/06 12:21:55;;;;;;;6.18;3.30;;;21.40;63.60;;;;;;5050769;28;20387;-79
2023/07/06 12:24:23;;;;;;;4.07;2.97;;;21.50;60.00;;;;;;5050816;28;20017;-80
2023/07/06 12:26:53;;;;;;;4.05;2.80;;;21.60;62.40;;;;;;5051934;28;20387;-81
2023/07/06 12:29:23;;;;;;;3.20;2.80;;;21.70;60.50;;;;;;5050611;28;20021;-80
2023/07/06 12:31:50;;;;;;;12.10;3.13;;;21.80;59.00;;;;;;5051567;28;20062;-81
2023/07/06 12:34:19;;;;;;;11.23;3.30;;;22.00;59.20;;;;;;5051785;28;20035;-80
2023/07/06 12:36:49;;;;;;;4.47;2.63;;;22.20;59.00;;;;;;5050455;28;20039;-80
2023/07/06 12:39:18;;;;;;;4.50;2.90;;;22.40;58.90;;;;;;5051718;28;20378;-81
2023/07/06 12:41:44;;;;;;;2.85;2.58;;;22.40;60.10;;;;;;5050446;28;20041;-80
2023/07/06 12:44:21;;;;;;;6.35;2.92;;;22.30;57.80;;;;;;5050316;28;20123;-80
2023/07/06 12:46:51;;;;;;;3.10;2.80;;;22.30;57.80;;;;;;5051822;28;20028;-80
2023/07/06 12:49:21;;;;;;;7.85;3.03;;;22.40;58.50;;;;;;5051585;28;20105;-80
2023/07/06 12:51:55;;;;;;;3.22;2.47;;;22.60;58.70;;;;;;5050212;28;20094;-81
2023/07/06 12:54:26;;;;;;;2.35;2.13;;;22.70;58.80;;;;;;5050464;28;20139;-80
2023/07/06 12:57:02;;;;;;;4.68;3.33;;;22.70;58.60;;;;;;5050321;28;20076;-80
2023/07/06 12:59:33;;;;;;;7.70;2.95;;;22.30;55.60;;;;;;5051627;28;20025;-80
2023/07/06 13:02:06;;;;;;;5.97;2.67;;;22.10;55.50;;;;;;5050173;28;20071;-81
2023/07/06 13:04:43;;;;;;;5.20;2.15;;;22.30;56.30;;;;;;5051612;28;20467;-80
2023/07/06 13:07:09;;;;;;;4.43;3.00;;;22.50;57.20;;;;;;5049956;28;20021;-80